sensor_id;sensor_type;location;lat;lon;timestamp;temperature;humidity
40053;DHT22;25758;48.200;16.338;2023-06-24T17:58:07;19.70;99.90
40053;DHT22;25758;48.200;16.338;2023-06-24T18:00:33;19.70;99.90
40053;DHT22;25758;48.200;16.338;2023-06-24T18:03:05;19.70;99.90
40053;DHT22;25758;48.200;16.338;2023-06-24T18:05:59;19.70;99.90
40053;DHT22;25758;48.200;16.338;2023-06-24T18:11:38;19.70;99.90
40053;DHT22;25758;48.200;16.338;2023-06-24T18:14:04;19.80;99.90
40053;DHT22;25758;48.200;16.338;2023-06-24T18:16:30;19.80;99.90
40053;DHT22;25758;48.200;16.338;2023-06-24T18:18:55;19.80;99.90
40053;DHT22;25758;48.200;16.338;2023-06-24T18:25:12;19.80;99.90
40053;DHT22;25758;48.200;16.338;2023-06-24T18:41:03;19.80;99.90
40053;DHT22;25758;48.200;16.338;2023-06-24T18:43:29;19.80;99.90
40053;DHT22;25758;48.200;16.338;2023-06-24T18:45:55;19.80;99.90
40053;DHT22;25758;48.200;16.338;2023-06-24T18:48:20;19.80;99.90
40053;DHT22;25758;48.200;16.338;2023-06-24T18:50:47;19.80;99.90
40053;DHT22;25758;48.200;16.338;2023-06-24T18:53:13;19.80;99.90
40053;DHT22;25758;48.200;16.338;2023-06-24T18:55:38;19.80;99.90
40053;DHT22;25758;48.200;16.338;2023-06-24T18:58:06;19.80;99.90
40053;DHT22;25758;48.200;16.338;2023-06-24T19:00:33;19.80;99.90
40053;DHT22;25758;48.200;16.338;2023-06-24T19:02:59;19.80;99.90
40053;DHT22;25758;48.200;16.338;2023-06-24T19:05:24;19.80;99.90
40053;DHT22;25758;48.200;16.338;2023-06-24T19:07:51;19.80;99.90
40053;DHT22;25758;48.200;16.338;2023-06-24T19:10:17;19.80;99.90
40053;DHT22;25758;48.200;16.338;2023-06-24T19:12:43;19.80;99.90
40053;DHT22;25758;48.200;16.338;2023-06-24T19:15:09;19.80;99.90
40053;DHT22;25758;48.200;16.338;2023-06-24T19:17:34;19.80;99.90
40053;DHT22;25758;48.200;16.338;2023-06-24T19:20:00;19.80;99.90
40053;DHT22;25758;48.200;16.338;2023-06-24T19:22:26;19.80;99.90
40053;DHT22;25758;48.200;16.338;2023-06-24T19:24:56;19.80;99.90
40053;DHT22;25758;48.200;16.338;2023-06-24T19:30:43;19.80;99.90
40053;DHT22;25758;48.200;16.338;2023-06-24T19:36:51;19.80;99.90
40053;DHT22;25758;48.200;16.338;2023-06-24T19:46:08;19.60;99.90
40053;DHT22;25758;48.200;16.338;2023-06-24T19:48:33;19.60;99.90
40053;DHT22;25758;48.200;16.338;2023-06-24T19:54:40;19.60;99.90
40053;DHT22;25758;48.200;16.338;2023-06-24T20:04:04;19.60;99.90
40053;DHT22;25758;48.200;16.338;2023-06-24T20:06:30;19.60;99.90
40053;DHT22;25758;48.200;16.338;2023-06-24T20:09:13;19.60;99.90
40053;DHT22;25758;48.200;16.338;2023-06-24T20:11:38;19.60;99.90
40053;DHT22;25758;48.200;16.338;2023-06-24T20:14:04;19.50;99.90
40053;DHT22;25758;48.200;16.338;2023-06-24T20:16:30;19.50;99.90
40053;DHT22;25758;48.200;16.338;2023-06-24T20:18:55;19.50;99.90
40053;DHT22;25758;48.200;16.338;2023-06-24T20:21:34;19.50;99.90
40053;DHT22;25758;48.200;16.338;2023-06-24T20:24:00;19.50;99.90
40053;DHT22;25758;48.200;16.338;2023-06-24T20:26:25;19.50;99.90
40053;DHT22;25758;48.200;16.338;2023-06-24T20:28:59;19.50;99.90
40053;DHT22;25758;48.200;16.338;2023-06-24T20:34:56;19.40;99.90
40053;DHT22;25758;48.200;16.338;2023-06-24T20:41:19;19.40;99.90
40053;DHT22;25758;48.200;16.338;2023-06-24T21:15:18;19.50;99.90
40053;DHT22;25758;48.200;16.338;2023-06-24T21:17:44;19.50;99.90
40053;DHT22;25758;48.200;16.338;2023-06-24T21:20:10;19.40;99.90
40053;DHT22;25758;48.200;16.338;2023-06-24T21:23:15;19.40;99.90
40053;DHT22;25758;48.200;16.338;2023-06-24T21:25:45;19.40;99.90
40053;DHT22;25758;48.200;16.338;2023-06-24T21:28:11;19.40;99.90
40053;DHT22;25758;48.200;16.338;2023-06-24T21:30:39;19.40;99.90
40053;DHT22;25758;48.200;16.338;2023-06-24T21:33:04;19.50;99.90
40053;DHT22;25758;48.200;16.338;2023-06-24T21:42:19;19.50;99.90
40053;DHT22;25758;48.200;16.338;2023-06-24T21:44:44;19.40;99.90
40053;DHT22;25758;48.200;16.338;2023-06-24T21:47:10;19.40;99.90
40053;DHT22;25758;48.200;16.338;2023-06-24T21:49:36;19.40;99.90
40053;DHT22;25758;48.200;16.338;2023-06-24T21:52:01;19.40;99.90
40053;DHT22;25758;48.200;16.338;2023-06-24T22:00:59;19.40;99.90
40053;DHT22;25758;48.200;16.338;2023-06-24T22:03:25;19.30;99.90
40053;DHT22;25758;48.200;16.338;2023-06-24T22:05:51;19.30;99.90
40053;DHT22;25758;48.200;16.338;2023-06-24T22:08:17;19.30;99.90
40053;DHT22;25758;48.200;16.338;2023-06-24T22:14:22;19.30;99.90
40053;DHT22;25758;48.200;16.338;2023-06-24T22:17:08;19.20;99.90
40053;DHT22;25758;48.200;16.338;2023-06-24T22:19:33;19.20;99.90
40053;DHT22;25758;48.200;16.338;2023-06-24T22:21:59;19.20;99.90
40053;DHT22;25758;48.200;16.338;2023-06-24T22:31:37;19.20;99.90
40053;DHT22;25758;48.200;16.338;2023-06-24T22:37:14;19.20;99.90
40053;DHT22;25758;48.200;16.338;2023-06-24T22:39:39;19.20;99.90
40053;DHT22;25758;48.200;16.338;2023-06-24T22:42:05;19.20;99.90
40053;DHT22;25758;48.200;16.338;2023-06-24T22:44:31;19.10;99.90
40053;DHT22;25758;48.200;16.338;2023-06-24T22:46:56;19.20;99.90
40053;DHT22;25758;48.200;16.338;2023-06-24T22:49:23;19.20;99.90
40053;DHT22;25758;48.200;16.338;2023-06-24T23:05:25;19.10;99.90
40053;DHT22;25758;48.200;16.338;2023-06-24T23:07:51;19.10;99.90
40053;DHT22;25758;48.200;16.338;2023-06-24T23:14:08;19.10;99.90
40053;DHT22;25758;48.200;16.338;2023-06-24T23:16:36;19.10;99.90
40053;DHT22;25758;48.200;16.338;2023-06-24T23:19:02;19.10;99.90
40053;DHT22;25758;48.200;16.338;2023-06-24T23:21:28;19.10;99.90
40053;DHT22;25758;48.200;16.338;2023-06-24T23:23:54;19.10;99.90
40053;DHT22;25758;48.200;16.338;2023-06-24T23:26:27;19.10;99.90
40053;DHT22;25758;48.200;16.338;2023-06-24T23:28:53;19.10;99.90
40053;DHT22;25758;48.200;16.338;2023-06-24T23:31:39;19.00;99.90
40053;DHT22;25758;48.200;16.338;2023-06-24T23:34:05;19.10;99.90
40053;DHT22;25758;48.200;16.338;2023-06-24T23:50:42;19.00;99.90
40053;DHT22;25758;48.200;16.338;2023-06-24T23:53:08;19.00;99.90
40053;DHT22;25758;48.200;16.338;2023-06-24T23:58:49;18.90;99.90
